Springfield, MO

11:56 PM CDT on October 30, 2014 (GMT -0500)
Urban Roots Farm | Change Station
CLOSE
Current Station
Personal Weather Station
Location: Springfield, MO
Elevation: 1306 ft
Nearby Weather Stations
Active Advisory: Freeze Warning

Elev 1306 ft 37.20 °N, 93.30 °W | Updated 14 minutes ago

Clear
Clear
53.2 °F
Feels Like 53.2 °F
N
0.0
Wind Variable Wind from WNW

Today
High -- | Low -- °F
--% Chance of Precip.
Yesterday
High -- | Low -- °F
Precip. -- in
7:35 AM 6:17 PM
Waxing Crescent, 51% visible
Pressure 30.10 in
Visibility 10.0 miles
Clouds Clear
Dew Point 43 °F
Humidity 69%
Rainfall 0.09 in
Snow Depth Not available.
UV 0 out of 12
Pollen 1.90 out of 12
Air Quality Not available.
Flu Activity Not available.
METAR KSGF 310352Z 32010KT 10SM CLR 11/05 A3010 RMK AO2 SLP193 T01060050

More Conditions Fewer Conditions

Pressure 30.10 in
Visibility 10.0 miles
Clouds Clear
Dew Point 43 °F
Humidity 69%
Rainfall 0.09 in
Snow Depth Not available.
UV 0 out of 12
Pollen 1.90 out of 12
Air Quality Not available.
Flu Activity Not available.
METAR KSGF 310352Z 32010KT 10SM CLR 11/05 A3010 RMK AO2 SLP193 T01060050

More Conditions Fewer Conditions

10-Day Weather Forecast

Almanac

Astronomy

Oct. 30, 2014 Rise Set
Actual Time
Civil Twilight
Nautical Twilight
Astronomical Twilight
Moon
Length of Visible Light
Length of Day
Tomorrow will be .
, % of the Moon is Illuminated

Today's Extremes

State Highs State Lows

Community

WunderPhotos

Upload Photos

1,766,567 photos uploaded!

WunderBlogs® & News

Nearby

Air Quality

  Air Quality AQ Index Pollutant
Not available.

Snow Depth

Station Depth Elevation

Earthquake Activity

City Distance Mag. Time & Date
Minimum magnitude displayed is 2.5.

Coastal Water Temperatures

Place Temperature

Nearby Weather Stations